Time,TemperatureF,DewpointF,PressureIn,WindDirection,WindDirectionDegrees,WindSpeedMPH,WindSpeedGustMPH,Humidity,HourlyPrecipIn,Conditions,Clouds,dailyrainin,SolarRadiationWatts/m^2,SoftwareType,DateUTC
2013-02-13 00:04:00,42.8,26.4,30.39,SSW,208,5.0,-999.0,52,0.00,,,0.00,0,WeatherHawk,2013-02-13 08:04:00,
2013-02-13 00:09:00,41.7,25.4,30.40,SW,215,0.0,0.0,52,0.00,,,0.00,0,WeatherHawk,2013-02-13 08:09:00,
2013-02-13 00:14:00,42.7,24.9,30.40,SSE,151,6.0,0.0,49,0.00,,,0.00,0,WeatherHawk,2013-02-13 08:14:00,
2013-02-13 00:19:00,41.4,24.1,30.40,ESE,112,1.0,0.0,50,0.00,,,0.00,1,WeatherHawk,2013-02-13 08:19:00,
2013-02-13 00:24:00,44.0,24.5,30.39,SW,227,3.0,0.0,46,0.00,,,0.00,0,WeatherHawk,2013-02-13 08:24:00,
2013-02-13 00:29:00,44.4,25.4,30.40,SSW,203,7.0,0.0,47,0.00,,,0.00,0,WeatherHawk,2013-02-13 08:29:00,
2013-02-13 00:34:00,43.1,24.3,30.40,WSW,250,4.0,0.0,47,0.00,,,0.00,0,WeatherHawk,2013-02-13 08:34:00,
2013-02-13 00:39:00,43.1,23.8,30.39,SW,236,3.0,0.0,46,0.00,,,0.00,0,WeatherHawk,2013-02-13 08:39:00,
2013-02-13 00:44:00,43.0,23.6,30.39,SW,235,3.0,-999.0,46,0.00,,,0.00,0,WeatherHawk,2013-02-13 08:44:00,
2013-02-13 00:49:00,42.1,23.4,30.39,North,6,0.0,0.0,47,0.00,,,0.00,0,WeatherHawk,2013-02-13 08:49:00,
2013-02-13 00:54:00,41.7,23.0,30.39,SE,145,4.0,-999.0,47,0.00,,,0.00,0,WeatherHawk,2013-02-13 08:54:00,
2013-02-13 00:59:00,43.0,24.1,30.39,SSW,195,4.0,0.0,47,0.00,,,0.00,0,WeatherHawk,2013-02-13 08:59:00,
2013-02-13 01:04:00,43.7,24.3,30.39,West,263,2.0,-999.0,46,0.00,,,0.00,0,WeatherHawk,2013-02-13 09:04:00,
2013-02-13 01:09:00,43.9,24.5,30.39,WSW,246,4.0,0.0,46,0.00,,,0.00,0,WeatherHawk,2013-02-13 09:09:00,
2013-02-13 01:14:00,43.6,23.6,30.39,SSW,213,6.0,0.0,45,0.00,,,0.00,0,WeatherHawk,2013-02-13 09:14:00,
2013-02-13 01:19:00,43.9,24.4,30.39,WSW,244,6.0,0.0,46,0.00,,,0.00,0,WeatherHawk,2013-02-13 09:19:00,
2013-02-13 01:24:00,44.6,23.5,30.39,SW,216,4.0,-999.0,43,0.00,,,0.00,0,WeatherHawk,2013-02-13 09:24:00,
2013-02-13 01:29:00,45.5,23.1,30.39,WSW,243,8.0,0.0,41,0.00,,,0.00,0,WeatherHawk,2013-02-13 09:29:00,
2013-02-13 01:34:00,45.2,23.5,30.39,SW,220,9.0,0.0,42,0.00,,,0.00,0,WeatherHawk,2013-02-13 09:34:00,
2013-02-13 01:39:00,44.8,23.1,30.38,SSW,201,6.0,0.0,42,0.00,,,0.00,0,WeatherHawk,2013-02-13 09:39:00,
2013-02-13 01:44:00,44.6,23.0,30.38,SW,214,3.0,-999.0,42,0.00,,,0.00,0,WeatherHawk,2013-02-13 09:44:00,
2013-02-13 01:49:00,45.3,23.0,30.38,SSW,201,8.0,0.0,41,0.00,,,0.00,0,WeatherHawk,2013-02-13 09:49:00,
2013-02-13 01:54:00,45.2,23.0,30.38,SSW,205,8.0,0.0,41,0.00,,,0.00,0,WeatherHawk,2013-02-13 09:54:00,
2013-02-13 01:59:00,45.6,22.7,30.38,SSW,198,11.0,0.0,40,0.00,,,0.00,0,WeatherHawk,2013-02-13 09:59:00,
2013-02-13 02:04:00,43.9,21.2,30.38,SSE,160,7.0,0.0,40,0.00,,,0.00,0,WeatherHawk,2013-02-13 10:04:00,
2013-02-13 02:09:00,42.9,22.0,30.38,SSE,156,11.0,0.0,43,0.00,,,0.00,0,WeatherHawk,2013-02-13 10:09:00,
2013-02-13 02:14:00,42.4,22.6,30.38,SSE,162,11.0,0.0,45,0.00,,,0.00,0,WeatherHawk,2013-02-13 10:14:00,
2013-02-13 02:19:00,42.8,21.9,30.38,SSE,151,10.0,0.0,43,0.00,,,0.00,0,WeatherHawk,2013-02-13 10:19:00,
2013-02-13 02:24:00,42.8,23.5,30.38,SSE,158,10.0,-999.0,46,0.00,,,0.00,0,WeatherHawk,2013-02-13 10:24:00,
2013-02-13 02:29:00,42.5,23.2,30.37,SSE,161,8.0,0.0,46,0.00,,,0.00,0,WeatherHawk,2013-02-13 10:29:00,
2013-02-13 02:34:00,42.8,24.0,30.37,South,178,9.0,0.0,47,0.00,,,0.00,0,WeatherHawk,2013-02-13 10:34:00,
2013-02-13 02:39:00,43.9,24.4,30.38,South,190,3.0,0.0,46,0.00,,,0.00,1,WeatherHawk,2013-02-13 10:39:00,
2013-02-13 02:44:00,43.7,23.7,30.38,SSE,164,7.0,0.0,45,0.00,,,0.00,0,WeatherHawk,2013-02-13 10:44:00,
2013-02-13 02:49:00,43.1,22.7,30.37,South,169,6.0,0.0,44,0.00,,,0.00,0,WeatherHawk,2013-02-13 10:49:00,
2013-02-13 02:54:00,44.0,24.0,30.37,SSE,152,6.0,-999.0,45,0.00,,,0.00,0,WeatherHawk,2013-02-13 10:54:00,
2013-02-13 02:59:00,43.7,23.8,30.37,SSE,147,5.0,0.0,45,0.00,,,0.00,1,WeatherHawk,2013-02-13 10:59:00,
2013-02-13 03:04:00,44.7,23.0,30.37,ESE,108,6.0,-999.0,42,0.00,,,0.00,0,WeatherHawk,2013-02-13 11:04:00,
2013-02-13 03:09:00,43.9,22.8,30.37,SSW,194,1.0,0.0,43,0.00,,,0.00,0,WeatherHawk,2013-02-13 11:09:00,
2013-02-13 03:14:00,44.7,24.2,30.37,SE,138,5.0,0.0,44,0.00,,,0.00,0,WeatherHawk,2013-02-13 11:14:00,
2013-02-13 03:19:00,43.3,24.0,30.37,South,174,4.0,0.0,46,0.00,,,0.00,0,WeatherHawk,2013-02-13 11:19:00,
2013-02-13 03:24:00,44.5,25.0,30.37,South,176,9.0,0.0,46,0.00,,,0.00,0,WeatherHawk,2013-02-13 11:24:00,
2013-02-13 03:34:00,45.2,23.5,30.38,WSW,242,0.0,0.0,42,0.00,,,0.00,0,WeatherHawk,2013-02-13 11:34:00,
2013-02-13 03:39:00,43.7,23.2,30.38,South,178,2.0,0.0,44,0.00,,,0.00,0,WeatherHawk,2013-02-13 11:39:00,
2013-02-13 03:45:00,44.4,23.9,30.38,SSW,194,5.0,0.0,44,0.00,,,0.00,0,WeatherHawk,2013-02-13 11:45:00,
2013-02-13 03:50:00,44.8,23.1,30.37,NW,308,1.0,0.0,42,0.00,,,0.00,0,WeatherHawk,2013-02-13 11:50:00,
2013-02-13 03:55:00,45.1,23.4,30.37,WSW,257,3.0,0.0,42,0.00,,,0.00,0,WeatherHawk,2013-02-13 11:55:00,
2013-02-13 04:00:00,43.6,23.7,30.37,SSE,168,3.0,0.0,45,0.00,,,0.00,0,WeatherHawk,2013-02-13 12:00:00,
2013-02-13 04:05:00,43.5,23.6,30.38,SE,142,6.0,0.0,45,0.00,,,0.00,0,WeatherHawk,2013-02-13 12:05:00,
2013-02-13 04:10:00,43.0,23.1,30.37,ESE,105,8.0,0.0,45,0.00,,,0.00,0,WeatherHawk,2013-02-13 12:10:00,
2013-02-13 04:15:00,43.2,23.3,30.37,SE,143,6.0,0.0,45,0.00,,,0.00,0,WeatherHawk,2013-02-13 12:15:00,
2013-02-13 04:20:00,42.9,24.0,30.37,SSE,150,5.0,0.0,47,0.00,,,0.00,0,WeatherHawk,2013-02-13 12:20:00,
2013-02-13 04:25:00,42.8,24.0,30.37,SE,146,6.0,0.0,47,0.00,,,0.00,0,WeatherHawk,2013-02-13 12:25:00,
2013-02-13 04:31:00,42.9,23.6,30.37,SSE,153,6.0,0.0,46,0.00,,,0.00,1,WeatherHawk,2013-02-13 12:31:00,
2013-02-13 04:36:00,43.1,24.2,30.37,SSE,156,6.0,0.0,47,0.00,,,0.00,1,WeatherHawk,2013-02-13 12:36:00,
2013-02-13 04:41:00,43.7,24.3,30.38,SSE,165,10.0,0.0,46,0.00,,,0.00,0,WeatherHawk,2013-02-13 12:41:00,
2013-02-13 04:46:00,43.0,24.1,30.37,SE,136,7.0,0.0,47,0.00,,,0.00,0,WeatherHawk,2013-02-13 12:46:00,
2013-02-13 04:51:00,42.5,23.7,30.37,SE,137,6.0,0.0,47,0.00,,,0.00,0,WeatherHawk,2013-02-13 12:51:00,
2013-02-13 04:56:00,42.2,23.4,30.38,SE,144,6.0,0.0,47,0.00,,,0.00,0,WeatherHawk,2013-02-13 12:56:00,
2013-02-13 05:01:00,43.3,25.0,30.38,SSE,160,7.0,0.0,48,0.00,,,0.00,1,WeatherHawk,2013-02-13 13:01:00,
2013-02-13 05:06:00,42.1,23.3,30.38,SSE,163,6.0,0.0,47,0.00,,,0.00,0,WeatherHawk,2013-02-13 13:06:00,
2013-02-13 05:11:00,42.5,24.2,30.38,SSE,159,8.0,0.0,48,0.00,,,0.00,0,WeatherHawk,2013-02-13 13:11:00,
2013-02-13 05:16:00,41.9,23.2,30.38,South,179,4.0,0.0,47,0.00,,,0.00,0,WeatherHawk,2013-02-13 13:16:00,
2013-02-13 05:21:00,41.8,24.1,30.38,South,170,7.0,0.0,49,0.00,,,0.00,0,WeatherHawk,2013-02-13 13:21:00,
2013-02-13 05:26:00,42.2,23.9,30.38,SSE,168,9.0,0.0,48,0.00,,,0.00,0,WeatherHawk,2013-02-13 13:26:00,
2013-02-13 05:31:00,41.9,23.6,30.38,South,191,7.0,0.0,48,0.00,,,0.00,0,WeatherHawk,2013-02-13 13:31:00,
2013-02-13 05:36:00,41.8,24.1,30.38,SSE,157,12.0,0.0,49,0.00,,,0.00,0,WeatherHawk,2013-02-13 13:36:00,
2013-02-13 05:41:00,41.4,23.7,30.38,South,174,10.0,0.0,49,0.00,,,0.00,0,WeatherHawk,2013-02-13 13:41:00,
2013-02-13 05:46:00,40.9,23.7,30.38,South,169,10.0,0.0,50,0.00,,,0.00,0,WeatherHawk,2013-02-13 13:46:00,
2013-02-13 05:51:00,40.7,23.5,30.38,South,173,10.0,0.0,50,0.00,,,0.00,0,WeatherHawk,2013-02-13 13:51:00,
2013-02-13 05:56:00,40.9,23.7,30.38,SSE,160,9.0,0.0,50,0.00,,,0.00,1,WeatherHawk,2013-02-13 13:56:00,
2013-02-13 06:01:00,41.1,23.9,30.39,SSE,165,9.0,0.0,50,0.00,,,0.00,0,WeatherHawk,2013-02-13 14:01:00,
2013-02-13 06:06:00,40.5,23.4,30.38,SSE,165,11.0,0.0,50,0.00,,,0.00,0,WeatherHawk,2013-02-13 14:06:00,
2013-02-13 06:11:00,40.1,23.9,30.39,SE,136,7.0,0.0,52,0.00,,,0.00,1,WeatherHawk,2013-02-13 14:11:00,
2013-02-13 06:16:00,41.6,24.8,30.38,SE,135,12.0,0.0,51,0.00,,,0.00,0,WeatherHawk,2013-02-13 14:16:00,
2013-02-13 06:21:00,40.3,23.7,30.38,SE,133,10.0,0.0,51,0.00,,,0.00,0,WeatherHawk,2013-02-13 14:21:00,
2013-02-13 06:26:00,40.3,24.1,30.38,SSE,150,12.0,0.0,52,0.00,,,0.00,0,WeatherHawk,2013-02-13 14:26:00,
2013-02-13 06:31:00,40.3,24.1,30.38,SSE,151,10.0,0.0,52,0.00,,,0.00,0,WeatherHawk,2013-02-13 14:31:00,
2013-02-13 06:36:00,41.4,25.1,30.38,SE,145,8.0,0.0,52,0.00,,,0.00,0,WeatherHawk,2013-02-13 14:36:00,
2013-02-13 06:41:00,40.0,23.8,30.38,SE,144,9.0,0.0,52,0.00,,,0.00,0,WeatherHawk,2013-02-13 14:41:00,
2013-02-13 06:46:00,40.5,24.7,30.38,SSE,148,10.0,0.0,53,0.00,,,0.00,0,WeatherHawk,2013-02-13 14:46:00,
2013-02-13 06:51:00,41.0,24.7,30.38,SSE,161,8.0,0.0,52,0.00,,,0.00,1,WeatherHawk,2013-02-13 14:51:00,
2013-02-13 06:56:00,42.6,24.8,30.38,SSE,154,9.0,0.0,49,0.00,,,0.00,2,WeatherHawk,2013-02-13 14:56:00,
2013-02-13 07:01:00,42.4,24.1,30.39,SE,134,7.0,0.0,48,0.00,,,0.00,0,WeatherHawk,2013-02-13 15:01:00,
2013-02-13 07:06:00,42.2,23.9,30.38,SSE,151,7.0,0.0,48,0.00,,,0.00,0,WeatherHawk,2013-02-13 15:06:00,
2013-02-13 07:11:00,45.0,26.5,30.39,SSW,201,10.0,0.0,48,0.00,,,0.00,0,WeatherHawk,2013-02-13 15:11:00,
2013-02-13 07:16:00,42.4,24.1,30.39,SSE,162,10.0,0.0,48,0.00,,,0.00,2,WeatherHawk,2013-02-13 15:16:00,
2013-02-13 07:21:00,42.7,23.8,30.39,SSE,152,10.0,0.0,47,0.00,,,0.00,6,WeatherHawk,2013-02-13 15:21:00,
2013-02-13 07:26:00,41.4,23.2,30.39,SSE,157,10.0,0.0,48,0.00,,,0.00,8,WeatherHawk,2013-02-13 15:26:00,
2013-02-13 07:31:00,40.5,22.9,30.39,SSE,165,10.0,0.0,49,0.00,,,0.00,8,WeatherHawk,2013-02-13 15:31:00,
2013-02-13 07:36:00,39.7,22.6,30.39,South,172,10.0,0.0,50,0.00,,,0.00,10,WeatherHawk,2013-02-13 15:36:00,
2013-02-13 07:41:00,39.5,22.4,30.39,SSE,154,10.0,0.0,50,0.00,,,0.00,13,WeatherHawk,2013-02-13 15:41:00,
2013-02-13 07:46:00,39.1,22.0,30.40,SE,143,12.0,0.0,50,0.00,,,0.00,15,WeatherHawk,2013-02-13 15:46:00,
2013-02-13 07:51:00,38.8,22.3,30.40,SSE,156,14.0,0.0,51,0.00,,,0.00,21,WeatherHawk,2013-02-13 15:51:00,
2013-02-13 07:57:00,38.3,21.8,30.40,SSE,165,12.0,0.0,51,0.00,,,0.00,24,WeatherHawk,2013-02-13 15:57:00,
2013-02-13 08:02:00,37.9,21.9,30.40,SE,146,12.0,0.0,52,0.00,,,0.00,25,WeatherHawk,2013-02-13 16:02:00,
2013-02-13 08:07:00,38.5,22.4,30.40,SSE,152,14.0,0.0,52,0.00,,,0.00,24,WeatherHawk,2013-02-13 16:07:00,
2013-02-13 08:12:00,39.4,22.8,30.40,SSE,167,13.0,0.0,51,0.00,,,0.00,26,WeatherHawk,2013-02-13 16:12:00,
2013-02-13 08:17:00,38.5,22.0,30.40,SSE,166,12.0,0.0,51,0.00,,,0.00,30,WeatherHawk,2013-02-13 16:17:00,
2013-02-13 08:22:00,38.6,22.1,30.40,South,172,12.0,0.0,51,0.00,,,0.00,32,WeatherHawk,2013-02-13 16:22:00,
2013-02-13 08:28:00,39.3,21.2,30.40,SE,132,13.0,0.0,48,0.00,,,0.00,37,WeatherHawk,2013-02-13 16:28:00,
2013-02-13 08:33:00,38.9,21.4,30.41,SSE,162,14.0,0.0,49,0.00,,,0.00,42,WeatherHawk,2013-02-13 16:33:00,
2013-02-13 08:38:00,38.3,21.3,30.41,SSE,168,11.0,0.0,50,0.00,,,0.00,48,WeatherHawk,2013-02-13 16:38:00,
2013-02-13 08:43:00,38.5,21.5,30.41,South,169,12.0,0.0,50,0.00,,,0.00,56,WeatherHawk,2013-02-13 16:43:00,
2013-02-13 08:48:00,38.9,22.4,30.40,SSE,163,10.0,0.0,51,0.00,,,0.00,67,WeatherHawk,2013-02-13 16:48:00,
2013-02-13 08:53:00,39.2,22.1,30.40,SSE,149,12.0,0.0,50,0.00,,,0.00,79,WeatherHawk,2013-02-13 16:53:00,
2013-02-13 08:59:00,38.8,21.3,30.40,South,169,12.0,0.0,49,0.00,,,0.00,90,WeatherHawk,2013-02-13 16:59:00,
2013-02-13 09:04:00,39.0,22.0,30.41,SSE,158,12.0,0.0,50,0.00,,,0.00,108,WeatherHawk,2013-02-13 17:04:00,
2013-02-13 09:09:00,39.2,22.2,30.41,South,169,12.0,0.0,50,0.00,,,0.00,111,WeatherHawk,2013-02-13 17:09:00,
2013-02-13 09:14:00,39.4,22.3,30.40,SSE,159,13.0,0.0,50,0.00,,,0.00,105,WeatherHawk,2013-02-13 17:14:00,
2013-02-13 09:20:00,39.4,21.9,30.41,SSE,151,12.0,0.0,49,0.00,,,0.00,100,WeatherHawk,2013-02-13 17:20:00,
2013-02-13 09:25:00,40.0,22.4,30.41,SE,135,7.0,-999.0,49,0.00,,,0.00,101,WeatherHawk,2013-02-13 17:25:00,
2013-02-13 09:30:00,41.7,23.5,30.41,SE,131,10.0,0.0,48,0.00,,,0.00,102,WeatherHawk,2013-02-13 17:30:00,
2013-02-13 09:35:00,41.6,22.4,30.41,SE,129,5.0,-999.0,46,0.00,,,0.00,110,WeatherHawk,2013-02-13 17:35:00,
2013-02-13 09:40:00,43.4,23.5,30.40,South,187,8.0,0.0,45,0.00,,,0.00,116,WeatherHawk,2013-02-13 17:40:00,
2013-02-13 09:45:00,42.3,21.9,30.41,West,264,3.0,-999.0,44,0.00,,,0.00,115,WeatherHawk,2013-02-13 17:45:00,
2013-02-13 09:50:00,44.5,25.0,30.40,SSW,208,6.0,0.0,46,0.00,,,0.00,112,WeatherHawk,2013-02-13 17:50:00,
2013-02-13 09:55:00,43.2,22.3,30.40,WNW,288,0.0,0.0,43,0.00,,,0.00,108,WeatherHawk,2013-02-13 17:55:00,
2013-02-13 10:00:00,44.8,23.7,30.41,SW,235,2.0,0.0,43,0.00,,,0.00,105,WeatherHawk,2013-02-13 18:00:00,
2013-02-13 10:05:00,42.3,22.0,30.40,West,274,0.0,0.0,44,0.00,,,0.00,110,WeatherHawk,2013-02-13 18:05:00,
2013-02-13 10:10:00,44.0,22.9,30.40,SSW,212,3.0,0.0,43,0.00,,,0.00,115,WeatherHawk,2013-02-13 18:10:00,
2013-02-13 10:15:00,45.8,24.0,30.40,SW,219,4.0,-999.0,42,0.00,,,0.00,122,WeatherHawk,2013-02-13 18:15:00,
2013-02-13 10:20:00,46.3,23.3,30.40,SW,222,5.0,0.0,40,0.00,,,0.00,125,WeatherHawk,2013-02-13 18:20:00,
2013-02-13 10:25:00,46.9,23.3,30.40,SW,222,0.0,0.0,39,0.00,,,0.00,128,WeatherHawk,2013-02-13 18:25:00,
2013-02-13 10:30:00,46.7,22.4,30.40,West,274,3.0,0.0,38,0.00,,,0.00,118,WeatherHawk,2013-02-13 18:30:00,
2013-02-13 10:35:00,47.0,22.1,30.40,SSW,210,3.0,0.0,37,0.00,,,0.00,112,WeatherHawk,2013-02-13 18:35:00,
2013-02-13 10:40:00,46.6,21.8,30.40,SSW,200,5.0,0.0,37,0.00,,,0.00,95,WeatherHawk,2013-02-13 18:40:00,
2013-02-13 10:45:00,46.4,21.6,30.40,SSE,162,4.0,0.0,37,0.00,,,0.00,81,WeatherHawk,2013-02-13 18:45:00,
2013-02-13 10:50:00,45.6,21.5,30.40,SSE,168,6.0,0.0,38,0.00,,,0.00,84,WeatherHawk,2013-02-13 18:50:00,
2013-02-13 10:55:00,45.6,21.4,30.40,South,177,5.0,0.0,38,0.00,,,0.00,98,WeatherHawk,2013-02-13 18:55:00,
2013-02-13 11:00:00,45.8,21.7,30.41,SSE,164,5.0,0.0,38,0.00,,,0.00,116,WeatherHawk,2013-02-13 19:00:00,
2013-02-13 11:04:00,46.0,21.9,30.40,SSW,193,4.0,0.0,38,0.00,,,0.00,127,WeatherHawk,2013-02-13 19:04:00,
2013-02-13 11:10:00,46.7,21.8,30.40,South,177,1.0,0.0,37,0.00,,,0.00,140,WeatherHawk,2013-02-13 19:10:00,
2013-02-13 11:15:00,45.9,22.3,30.40,West,260,0.0,-999.0,39,0.00,,,0.00,137,WeatherHawk,2013-02-13 19:15:00,
2013-02-13 11:20:00,42.4,20.9,30.41,ENE,60,7.0,0.0,42,0.00,,,0.00,131,WeatherHawk,2013-02-13 19:20:00,
2013-02-13 11:25:00,43.6,22.6,30.40,NE,53,4.0,0.0,43,0.00,,,0.00,124,WeatherHawk,2013-02-13 19:25:00,
2013-02-13 11:30:00,42.8,22.5,30.41,ESE,107,6.0,0.0,44,0.00,,,0.00,121,WeatherHawk,2013-02-13 19:30:00,
2013-02-13 11:35:00,44.5,22.9,30.41,SSE,161,2.0,-999.0,42,0.00,,,0.00,127,WeatherHawk,2013-02-13 19:35:00,
2013-02-13 11:40:00,43.4,21.9,30.41,West,269,3.0,0.0,42,0.00,,,0.00,122,WeatherHawk,2013-02-13 19:40:00,
2013-02-13 11:45:00,43.3,22.9,30.40,ENE,57,2.0,0.0,44,0.00,,,0.00,114,WeatherHawk,2013-02-13 19:45:00,
2013-02-13 11:50:00,43.0,21.5,30.41,WSW,250,2.0,0.0,42,0.00,,,0.00,117,WeatherHawk,2013-02-13 19:50:00,
2013-02-13 11:55:00,42.3,20.9,30.41,NE,51,6.0,0.0,42,0.00,,,0.00,136,WeatherHawk,2013-02-13 19:55:00,
2013-02-13 12:00:00,42.7,21.8,30.41,NE,55,5.0,0.0,43,0.00,,,0.00,132,WeatherHawk,2013-02-13 20:00:00,
2013-02-13 12:05:00,42.3,21.5,30.41,NE,45,2.0,-999.0,43,0.00,,,0.00,135,WeatherHawk,2013-02-13 20:05:00,
2013-02-13 12:10:00,43.2,22.8,30.41,North,10,0.0,0.0,44,0.00,,,0.00,125,WeatherHawk,2013-02-13 20:10:00,
2013-02-13 12:15:00,43.5,22.5,30.40,NE,54,0.0,0.0,43,0.00,,,0.00,114,WeatherHawk,2013-02-13 20:15:00,
2013-02-13 12:20:00,43.3,21.8,30.40,NE,35,4.0,0.0,42,0.00,,,0.00,104,WeatherHawk,2013-02-13 20:20:00,
2013-02-13 12:25:00,43.7,22.7,30.40,NE,35,2.0,0.0,43,0.00,,,0.00,93,WeatherHawk,2013-02-13 20:25:00,
2013-02-13 12:30:00,43.9,21.8,30.39,NE,46,2.0,0.0,41,0.00,,,0.00,89,WeatherHawk,2013-02-13 20:30:00,
2013-02-13 12:35:00,44.4,22.2,30.40,NE,45,0.0,0.0,41,0.00,,,0.00,76,WeatherHawk,2013-02-13 20:35:00,
2013-02-13 12:40:00,44.3,22.1,30.40,East,82,4.0,0.0,41,0.00,,,0.00,79,WeatherHawk,2013-02-13 20:40:00,
2013-02-13 12:45:00,44.9,22.7,30.40,WNW,302,0.0,-999.0,41,0.00,,,0.00,93,WeatherHawk,2013-02-13 20:45:00,
2013-02-13 12:50:00,44.0,22.4,30.40,NW,306,1.0,0.0,42,0.00,,,0.00,105,WeatherHawk,2013-02-13 20:50:00,
2013-02-13 12:55:00,44.6,22.4,30.40,NW,306,0.0,0.0,41,0.00,,,0.00,100,WeatherHawk,2013-02-13 20:55:00,
2013-02-13 13:00:00,45.3,21.2,30.39,NE,49,0.0,0.0,38,0.00,,,0.00,119,WeatherHawk,2013-02-13 21:00:00,
2013-02-13 13:05:00,46.2,21.4,30.39,WSW,248,0.0,0.0,37,0.00,,,0.00,125,WeatherHawk,2013-02-13 21:05:00,
2013-02-13 13:10:00,45.9,21.7,30.39,South,187,0.0,0.0,38,0.00,,,0.00,113,WeatherHawk,2013-02-13 21:10:00,
2013-02-13 13:15:00,47.0,18.7,30.39,WSW,241,4.0,0.0,32,0.00,,,0.00,100,WeatherHawk,2013-02-13 21:15:00,
2013-02-13 13:20:00,47.2,16.6,30.38,WSW,251,6.0,0.0,29,0.00,,,0.00,122,WeatherHawk,2013-02-13 21:20:00,
2013-02-13 13:25:00,47.0,18.0,30.38,West,271,1.0,0.0,31,0.00,,,0.00,143,WeatherHawk,2013-02-13 21:25:00,
2013-02-13 13:30:00,47.3,18.2,30.38,SW,233,6.0,0.0,31,0.00,,,0.00,154,WeatherHawk,2013-02-13 21:30:00,
2013-02-13 13:35:00,46.7,17.0,30.38,WSW,245,4.0,0.0,30,0.00,,,0.00,153,WeatherHawk,2013-02-13 21:35:00,
2013-02-13 13:40:00,47.4,15.9,30.38,NW,317,6.0,0.0,28,0.00,,,0.00,136,WeatherHawk,2013-02-13 21:40:00,
2013-02-13 13:46:00,46.7,16.9,30.37,WSW,256,9.0,0.0,30,0.00,,,0.00,120,WeatherHawk,2013-02-13 21:46:00,
2013-02-13 13:51:00,47.1,15.7,30.37,West,268,8.0,0.0,28,0.00,,,0.00,104,WeatherHawk,2013-02-13 21:51:00,
2013-02-13 13:56:00,46.7,16.9,30.37,WSW,256,5.0,0.0,30,0.00,,,0.00,82,WeatherHawk,2013-02-13 21:56:00,
2013-02-13 14:01:00,46.2,17.3,30.37,NW,317,3.0,0.0,31,0.00,,,0.00,73,WeatherHawk,2013-02-13 22:01:00,
2013-02-13 14:07:00,46.9,16.4,30.37,NW,316,6.0,0.0,29,0.00,,,0.00,74,WeatherHawk,2013-02-13 22:07:00,
2013-02-13 14:12:00,46.4,17.4,30.36,WNW,297,6.0,0.0,31,0.00,,,0.00,80,WeatherHawk,2013-02-13 22:12:00,
2013-02-13 14:17:00,46.7,16.1,30.37,West,262,1.0,0.0,29,0.00,,,0.00,88,WeatherHawk,2013-02-13 22:17:00,
2013-02-13 14:23:00,47.2,15.0,30.37,WSW,241,12.0,0.0,27,0.00,,,0.00,98,WeatherHawk,2013-02-13 22:23:00,
2013-02-13 14:28:00,47.2,15.8,30.37,West,275,8.0,0.0,28,0.00,,,0.00,101,WeatherHawk,2013-02-13 22:28:00,
2013-02-13 14:33:00,47.0,16.4,30.37,WNW,290,5.0,0.0,29,0.00,,,0.00,105,WeatherHawk,2013-02-13 22:33:00,
2013-02-13 14:38:00,46.3,16.6,30.37,West,273,2.0,0.0,30,0.00,,,0.00,146,WeatherHawk,2013-02-13 22:38:00,
2013-02-13 14:43:00,47.1,16.5,30.37,WNW,291,7.0,0.0,29,0.00,,,0.00,151,WeatherHawk,2013-02-13 22:43:00,
2013-02-13 14:48:00,47.8,15.4,30.37,West,265,5.0,0.0,27,0.00,,,0.00,150,WeatherHawk,2013-02-13 22:48:00,
2013-02-13 14:53:00,47.7,14.5,30.37,WNW,297,14.0,0.0,26,0.00,,,0.00,173,WeatherHawk,2013-02-13 22:53:00,
2013-02-13 14:58:00,47.4,15.1,30.37,NW,316,12.0,0.0,27,0.00,,,0.00,131,WeatherHawk,2013-02-13 22:58:00,
2013-02-13 15:03:00,48.4,16.0,30.36,WNW,291,10.0,0.0,27,0.00,,,0.00,323,WeatherHawk,2013-02-13 23:03:00,
2013-02-13 15:08:00,49.0,13.8,30.36,WNW,283,11.0,0.0,24,0.00,,,0.00,423,WeatherHawk,2013-02-13 23:08:00,
2013-02-13 15:13:00,48.6,11.5,30.36,WNW,287,14.0,0.0,22,0.00,,,0.00,322,WeatherHawk,2013-02-13 23:13:00,
2013-02-13 15:18:00,48.2,13.1,30.36,West,273,9.0,0.0,24,0.00,,,0.00,307,WeatherHawk,2013-02-13 23:18:00,
2013-02-13 15:24:00,48.0,15.6,30.37,WNW,303,10.0,0.0,27,0.00,,,0.00,166,WeatherHawk,2013-02-13 23:24:00,
2013-02-13 15:29:00,47.9,17.2,30.36,West,280,11.0,0.0,29,0.00,,,0.00,143,WeatherHawk,2013-02-13 23:29:00,
2013-02-13 15:34:00,47.4,15.1,30.36,WNW,296,12.0,0.0,27,0.00,,,0.00,116,WeatherHawk,2013-02-13 23:34:00,
2013-02-13 15:40:00,47.1,15.7,30.36,NW,313,10.0,0.0,28,0.00,,,0.00,69,WeatherHawk,2013-02-13 23:40:00,
2013-02-13 15:45:00,46.8,14.6,30.36,NW,319,12.0,0.0,27,0.00,,,0.00,44,WeatherHawk,2013-02-13 23:45:00,
2013-02-13 15:50:00,46.9,12.0,30.36,WSW,249,8.0,0.0,24,0.00,,,0.00,41,WeatherHawk,2013-02-13 23:50:00,
2013-02-13 15:55:00,46.8,12.9,30.37,WNW,294,17.0,0.0,25,0.00,,,0.00,71,WeatherHawk,2013-02-13 23:55:00,
2013-02-13 16:00:00,47.1,14.0,30.36,WNW,283,5.0,0.0,26,0.00,,,0.00,140,WeatherHawk,2013-02-14 00:00:00,
2013-02-13 16:05:00,47.6,14.4,30.37,West,276,9.0,0.0,26,0.00,,,0.00,171,WeatherHawk,2013-02-14 00:05:00,
2013-02-13 16:10:00,46.9,13.0,30.36,West,263,9.0,0.0,25,0.00,,,0.00,61,WeatherHawk,2013-02-14 00:10:00,
2013-02-13 16:15:00,46.9,14.7,30.36,WSW,238,10.0,0.0,27,0.00,,,0.00,47,WeatherHawk,2013-02-14 00:15:00,
2013-02-13 16:20:00,47.0,15.6,30.36,WSW,246,6.0,0.0,28,0.00,,,0.00,105,WeatherHawk,2013-02-14 00:20:00,
2013-02-13 16:25:00,47.3,15.0,30.36,West,278,14.0,0.0,27,0.00,,,0.00,129,WeatherHawk,2013-02-14 00:25:00,
2013-02-13 16:30:00,47.2,14.9,30.36,West,270,8.0,0.0,27,0.00,,,0.00,113,WeatherHawk,2013-02-14 00:30:00,
2013-02-13 16:35:00,47.2,14.1,30.37,WSW,252,13.0,0.0,26,0.00,,,0.00,106,WeatherHawk,2013-02-14 00:35:00,
2013-02-13 16:40:00,46.7,15.4,30.36,West,280,7.0,0.0,28,0.00,,,0.00,86,WeatherHawk,2013-02-14 00:40:00,
2013-02-13 16:45:00,46.3,15.0,30.37,West,269,9.0,0.0,28,0.00,,,0.00,86,WeatherHawk,2013-02-14 00:45:00,
2013-02-13 16:50:00,46.1,15.6,30.37,NW,306,13.0,-999.0,29,0.00,,,0.00,77,WeatherHawk,2013-02-14 00:50:00,
2013-02-13 16:55:00,45.9,15.5,30.37,West,267,11.0,0.0,29,0.00,,,0.00,40,WeatherHawk,2013-02-14 00:55:00,
2013-02-13 17:00:00,45.5,15.8,30.37,NW,323,10.0,0.0,30,0.00,,,0.00,18,WeatherHawk,2013-02-14 01:00:00,
2013-02-13 17:05:00,45.6,16.7,30.38,NW,310,9.0,0.0,31,0.00,,,0.00,34,WeatherHawk,2013-02-14 01:05:00,
2013-02-13 17:10:00,45.1,17.1,30.38,West,277,6.0,0.0,32,0.00,,,0.00,12,WeatherHawk,2013-02-14 01:10:00,
2013-02-13 17:15:00,44.9,17.5,30.38,WSW,246,6.0,-999.0,33,0.00,,,0.00,10,WeatherHawk,2013-02-14 01:15:00,
2013-02-13 17:20:00,44.6,18.0,30.38,WSW,240,6.0,0.0,34,0.00,,,0.00,8,WeatherHawk,2013-02-14 01:20:00,
2013-02-13 17:25:00,44.3,18.4,30.38,WSW,249,4.0,-999.0,35,0.00,,,0.00,7,WeatherHawk,2013-02-14 01:25:00,
2013-02-13 17:30:00,45.0,19.6,30.38,West,273,7.0,0.0,36,0.00,,,0.00,5,WeatherHawk,2013-02-14 01:30:00,
2013-02-13 17:35:00,44.4,19.1,30.38,WSW,249,5.0,-999.0,36,0.00,,,0.00,3,WeatherHawk,2013-02-14 01:35:00,
2013-02-13 17:40:00,44.4,19.1,30.38,WSW,257,4.0,0.0,36,0.00,,,0.00,3,WeatherHawk,2013-02-14 01:40:00,
2013-02-13 17:45:00,43.9,20.0,30.38,WSW,239,4.0,0.0,38,0.00,,,0.00,1,WeatherHawk,2013-02-14 01:45:00,
2013-02-13 17:50:00,44.0,20.0,30.38,WSW,252,3.0,0.0,38,0.00,,,0.00,0,WeatherHawk,2013-02-14 01:50:00,
2013-02-13 17:55:00,43.4,20.1,30.39,West,261,2.0,-999.0,39,0.00,,,0.00,0,WeatherHawk,2013-02-14 01:55:00,
2013-02-13 18:00:00,43.5,20.2,30.38,SW,236,4.0,0.0,39,0.00,,,0.00,0,WeatherHawk,2013-02-14 02:00:00,
2013-02-13 18:05:00,43.4,20.7,30.39,SSW,207,2.0,0.0,40,0.00,,,0.00,0,WeatherHawk,2013-02-14 02:05:00,
2013-02-13 18:10:00,43.6,21.5,30.39,SSW,204,5.0,0.0,41,0.00,,,0.00,0,WeatherHawk,2013-02-14 02:10:00,
2013-02-13 18:15:00,43.2,21.1,30.39,SW,233,1.0,0.0,41,0.00,,,0.00,0,WeatherHawk,2013-02-14 02:15:00,
2013-02-13 18:20:00,42.7,20.7,30.39,SW,231,2.0,0.0,41,0.00,,,0.00,1,WeatherHawk,2013-02-14 02:20:00,
2013-02-13 18:25:00,43.2,21.1,30.39,SW,231,3.0,0.0,41,0.00,,,0.00,0,WeatherHawk,2013-02-14 02:25:00,
2013-02-13 18:30:00,42.9,21.4,30.39,SW,233,0.0,0.0,42,0.00,,,0.00,0,WeatherHawk,2013-02-14 02:30:00,
2013-02-13 18:35:00,42.8,21.8,30.39,ESE,109,2.0,0.0,43,0.00,,,0.00,0,WeatherHawk,2013-02-14 02:35:00,
2013-02-13 18:40:00,43.3,22.3,30.39,ESE,107,3.0,-999.0,43,0.00,,,0.00,0,WeatherHawk,2013-02-14 02:40:00,
2013-02-13 18:45:00,43.9,21.8,30.39,East,90,5.0,0.0,41,0.00,,,0.00,0,WeatherHawk,2013-02-14 02:45:00,
2013-02-13 18:50:00,44.1,21.9,30.39,ESE,103,5.0,-999.0,41,0.00,,,0.00,0,WeatherHawk,2013-02-14 02:50:00,
2013-02-13 18:55:00,43.4,21.8,30.39,ESE,114,8.0,0.0,42,0.00,,,0.00,0,WeatherHawk,2013-02-14 02:55:00,
2013-02-13 19:00:00,42.2,21.3,30.39,SE,139,6.0,-999.0,43,0.00,,,0.00,0,WeatherHawk,2013-02-14 03:00:00,
2013-02-13 19:05:00,41.0,21.3,30.39,ESE,119,6.0,0.0,45,0.00,,,0.00,0,WeatherHawk,2013-02-14 03:05:00,
2013-02-13 19:10:00,44.2,23.1,30.39,SE,128,4.0,-999.0,43,0.00,,,0.00,0,WeatherHawk,2013-02-14 03:10:00,
2013-02-13 19:15:00,42.7,22.4,30.39,SE,125,3.0,0.0,44,0.00,,,0.00,0,WeatherHawk,2013-02-14 03:15:00,
2013-02-13 19:20:00,41.1,21.4,30.39,SSE,154,4.0,-999.0,45,0.00,,,0.00,0,WeatherHawk,2013-02-14 03:20:00,
2013-02-13 19:25:00,41.9,22.1,30.40,ESE,119,6.0,0.0,45,0.00,,,0.00,0,WeatherHawk,2013-02-14 03:25:00,
2013-02-13 19:30:00,42.0,22.2,30.40,SE,141,5.0,0.0,45,0.00,,,0.00,0,WeatherHawk,2013-02-14 03:30:00,
2013-02-13 19:35:00,42.4,22.6,30.40,SE,126,4.0,0.0,45,0.00,,,0.00,0,WeatherHawk,2013-02-14 03:35:00,
2013-02-13 19:40:00,43.6,23.7,30.40,SE,137,3.0,0.0,45,0.00,,,0.00,0,WeatherHawk,2013-02-14 03:40:00,
2013-02-13 19:45:00,41.4,21.2,30.41,SSE,158,2.0,0.0,44,0.00,,,0.00,0,WeatherHawk,2013-02-14 03:45:00,
2013-02-13 19:50:00,43.2,23.3,30.41,NNW,333,2.0,0.0,45,0.00,,,0.00,1,WeatherHawk,2013-02-14 03:50:00,
2013-02-13 19:55:00,40.9,21.2,30.41,East,82,8.0,0.0,45,0.00,,,0.00,0,WeatherHawk,2013-02-14 03:55:00,
2013-02-13 20:00:00,41.2,23.5,30.41,East,95,10.0,0.0,49,0.00,,,0.00,0,WeatherHawk,2013-02-14 04:00:00,
2013-02-13 20:05:00,39.4,23.3,30.42,East,91,9.0,0.0,52,0.00,,,0.00,1,WeatherHawk,2013-02-14 04:05:00,
2013-02-13 20:10:00,39.2,24.0,30.42,East,89,8.0,0.0,54,0.00,,,0.00,0,WeatherHawk,2013-02-14 04:10:00,
2013-02-13 20:15:00,39.1,23.9,30.42,ESE,123,6.0,0.0,54,0.00,,,0.00,0,WeatherHawk,2013-02-14 04:15:00,
2013-02-13 20:20:00,39.1,23.8,30.42,SE,134,5.0,-999.0,54,0.00,,,0.00,0,WeatherHawk,2013-02-14 04:20:00,
2013-02-13 20:25:00,38.7,23.5,30.42,SE,132,5.0,0.0,54,0.00,,,0.00,0,WeatherHawk,2013-02-14 04:25:00,
2013-02-13 20:30:00,38.8,24.0,30.42,SE,144,5.0,0.0,55,0.00,,,0.00,1,WeatherHawk,2013-02-14 04:30:00,
2013-02-13 20:35:00,38.3,23.6,30.43,ESE,121,5.0,0.0,55,0.00,,,0.00,0,WeatherHawk,2013-02-14 04:35:00,
2013-02-13 20:40:00,38.6,23.4,30.42,SE,128,5.0,0.0,54,0.00,,,0.00,0,WeatherHawk,2013-02-14 04:40:00,
2013-02-13 20:45:00,37.8,23.1,30.43,SE,129,6.0,0.0,55,0.00,,,0.00,0,WeatherHawk,2013-02-14 04:45:00,
2013-02-13 20:50:00,38.3,24.5,30.43,ESE,117,5.0,0.0,57,0.00,,,0.00,0,WeatherHawk,2013-02-14 04:50:00,
2013-02-13 20:55:00,37.6,23.8,30.43,SE,129,5.0,-999.0,57,0.00,,,0.00,0,WeatherHawk,2013-02-14 04:55:00,
2013-02-13 21:00:00,37.9,24.9,30.43,SE,128,6.0,0.0,59,0.00,,,0.00,0,WeatherHawk,2013-02-14 05:00:00,
2013-02-13 21:02:00,38.3,25.2,30.43,ESE,120,6.0,0.0,59,0.00,,,0.00,1,WeatherHawk,2013-02-14 05:02:00,
2013-02-13 21:05:00,37.9,24.5,30.43,ESE,115,5.0,0.0,58,0.00,,,0.00,0,WeatherHawk,2013-02-14 05:05:00,
2013-02-13 21:09:00,37.6,24.6,30.43,SE,127,5.0,0.0,59,0.00,,,0.00,0,WeatherHawk,2013-02-14 05:09:00,
2013-02-13 21:15:00,37.5,24.5,30.43,SE,129,5.0,0.0,59,0.00,,,0.00,0,WeatherHawk,2013-02-14 05:15:00,
2013-02-13 21:20:00,38.0,25.4,30.44,SE,137,5.0,0.0,60,0.00,,,0.00,0,WeatherHawk,2013-02-14 05:20:00,
2013-02-13 21:25:00,37.5,24.5,30.44,SE,135,5.0,0.0,59,0.00,,,0.00,0,WeatherHawk,2013-02-14 05:25:00,
2013-02-13 21:30:00,37.6,25.0,30.44,SE,139,5.0,0.0,60,0.00,,,0.00,0,WeatherHawk,2013-02-14 05:30:00,
2013-02-13 21:35:00,37.3,25.1,30.44,SE,132,4.0,0.0,61,0.00,,,0.00,0,WeatherHawk,2013-02-14 05:35:00,
2013-02-13 21:40:00,37.2,25.4,30.44,SE,136,6.0,0.0,62,0.00,,,0.00,0,WeatherHawk,2013-02-14 05:40:00,
2013-02-13 21:45:00,36.0,24.2,30.44,SE,142,6.0,-999.0,62,0.00,,,0.00,0,WeatherHawk,2013-02-14 05:45:00,
2013-02-13 21:50:00,36.5,24.8,30.44,SSE,156,3.0,0.0,62,0.00,,,0.00,0,WeatherHawk,2013-02-14 05:50:00,
2013-02-13 21:55:00,36.2,24.8,30.44,SE,139,3.0,0.0,63,0.00,,,0.00,0,WeatherHawk,2013-02-14 05:55:00,
2013-02-13 22:00:00,36.0,25.4,30.44,SSE,155,2.0,0.0,65,0.00,,,0.00,0,WeatherHawk,2013-02-14 06:00:00,
2013-02-13 22:05:00,36.2,26.3,30.45,SSE,147,0.0,0.0,67,0.00,,,0.00,0,WeatherHawk,2013-02-14 06:05:00,
2013-02-13 22:10:00,36.5,27.0,30.46,SSE,147,1.0,0.0,68,0.00,,,0.00,0,WeatherHawk,2013-02-14 06:10:00,
2013-02-13 22:15:00,35.5,26.4,30.46,SSE,147,0.0,-999.0,69,0.00,,,0.00,0,WeatherHawk,2013-02-14 06:15:00,
2013-02-13 22:20:00,36.0,27.5,30.46,SSE,147,0.0,0.0,71,0.00,,,0.00,0,WeatherHawk,2013-02-14 06:20:00,
2013-02-13 22:25:00,36.5,27.7,30.46,SSE,147,0.0,0.0,70,0.00,,,0.00,0,WeatherHawk,2013-02-14 06:25:00,
2013-02-13 22:30:00,37.2,28.3,30.47,SSE,147,0.0,0.0,70,0.00,,,0.00,0,WeatherHawk,2013-02-14 06:30:00,
2013-02-13 22:35:00,36.1,26.9,30.47,SSE,147,0.0,0.0,69,0.00,,,0.00,0,WeatherHawk,2013-02-14 06:35:00,
2013-02-13 22:40:00,35.0,26.5,30.47,SSE,147,0.0,0.0,71,0.00,,,0.00,0,WeatherHawk,2013-02-14 06:40:00,
2013-02-13 22:45:00,35.5,27.7,30.47,SSE,147,3.0,0.0,73,0.00,,,0.00,0,WeatherHawk,2013-02-14 06:45:00,
2013-02-13 22:50:00,34.4,26.7,30.47,SSE,147,0.0,-999.0,73,0.00,,,0.00,0,WeatherHawk,2013-02-14 06:50:00,
2013-02-13 22:55:00,35.3,28.5,30.48,SSE,151,4.0,-999.0,76,0.00,,,0.00,0,WeatherHawk,2013-02-14 06:55:00,
2013-02-13 23:00:00,33.6,26.9,30.47,NW,325,5.0,0.0,76,0.00,,,0.00,0,WeatherHawk,2013-02-14 07:00:00,
2013-02-13 23:05:00,33.7,27.3,30.47,SSE,154,1.0,0.0,77,0.00,,,0.00,0,WeatherHawk,2013-02-14 07:05:00,
2013-02-13 23:10:00,34.0,28.2,30.48,SE,125,2.0,0.0,79,0.00,,,0.00,0,WeatherHawk,2013-02-14 07:10:00,
2013-02-13 23:15:00,33.8,27.6,30.47,SSE,148,0.0,-999.0,78,0.00,,,0.00,0,WeatherHawk,2013-02-14 07:15:00,
2013-02-13 23:20:00,34.4,28.8,30.48,SSE,148,0.0,0.0,80,0.00,,,0.00,0,WeatherHawk,2013-02-14 07:20:00,
2013-02-13 23:25:00,33.4,27.6,30.47,WSW,248,0.0,-999.0,79,0.00,,,0.00,0,WeatherHawk,2013-02-14 07:25:00,
2013-02-13 23:30:00,33.0,27.5,30.47,NW,315,0.0,0.0,80,0.00,,,0.00,0,WeatherHawk,2013-02-14 07:30:00,
2013-02-13 23:35:00,33.4,28.5,30.48,NW,315,0.0,0.0,82,0.00,,,0.00,0,WeatherHawk,2013-02-14 07:35:00,
2013-02-13 23:40:00,34.7,29.8,30.47,South,176,0.0,0.0,82,0.00,,,0.00,0,WeatherHawk,2013-02-14 07:40:00,
2013-02-13 23:45:00,35.3,29.7,30.47,South,176,0.0,0.0,80,0.00,,,0.00,0,WeatherHawk,2013-02-14 07:45:00,
2013-02-13 23:50:00,34.5,29.0,30.47,South,176,0.0,0.0,80,0.00,,,0.00,0,WeatherHawk,2013-02-14 07:50:00,
2013-02-13 23:55:00,33.5,27.7,30.47,West,272,0.0,0.0,79,0.00,,,0.00,0,WeatherHawk,2013-02-14 07:55:00,